createdAt,value
2017-01-07T00:00:40.986Z,87.99
2017-01-07T00:01:51.307Z,87.95
2017-01-07T00:03:01.653Z,87.95
2017-01-07T00:04:12.008Z,88.53
2017-01-07T00:05:22.453Z,88.43
2017-01-07T00:06:32.894Z,88.81
2017-01-07T00:07:43.335Z,88.71
2017-01-07T00:08:53.775Z,88.81
2017-01-07T00:10:04.219Z,88.67
2017-01-07T00:11:14.660Z,88.91
2017-01-07T00:12:39.645Z,88.85
2017-01-07T00:13:50.086Z,88.76
2017-01-07T00:15:00.524Z,88.81
2017-01-07T00:16:11.011Z,88.95
2017-01-07T00:17:21.453Z,89.05
2017-01-07T00:18:31.921Z,88.91
2017-01-07T00:19:42.364Z,88.81
2017-01-07T00:20:52.801Z,88.81
2017-01-07T00:22:03.236Z,88.62
2017-01-07T00:23:13.677Z,88.53
2017-01-07T00:24:24.109Z,88.47
2017-01-07T00:25:34.548Z,88.81
2017-01-07T00:26:44.986Z,87.85
2017-01-07T00:27:55.443Z,88.85
2017-01-07T00:29:05.973Z,88.47
2017-01-07T00:30:16.501Z,89.01
2017-01-07T00:31:27.033Z,88.53
2017-01-07T00:32:37.561Z,89.01
2017-01-07T00:33:48.091Z,88.71
2017-01-07T00:34:58.618Z,88.47
2017-01-07T00:36:23.679Z,88.71
2017-01-07T00:37:34.208Z,88.33
2017-01-07T00:38:59.269Z,88.81
2017-01-07T00:40:10.096Z,88.13
2017-01-07T00:41:20.628Z,88.23
2017-01-07T00:42:31.162Z,88.43
2017-01-07T00:43:41.692Z,88.53
2017-01-07T00:44:52.218Z,89.01
2017-01-07T00:46:02.756Z,88.71
2017-01-07T00:47:13.284Z,88.62
2017-01-07T00:48:23.814Z,88.81
2017-01-07T00:49:34.342Z,89.29
2017-01-07T00:50:44.870Z,89.2
2017-01-07T00:51:55.603Z,89.2
2017-01-07T00:53:20.661Z,88.62
2017-01-07T00:54:31.187Z,87.75
2017-01-07T00:55:41.724Z,87.55
2017-01-07T00:56:52.251Z,87.85
2017-01-07T00:58:03.687Z,87.75
2017-01-07T00:59:14.214Z,87.95
2017-01-07T01:00:24.747Z,87.95
2017-01-07T01:01:35.276Z,87.75
2017-01-07T01:02:46.004Z,88.04
2017-01-07T01:03:56.532Z,87.75
2017-01-07T01:05:07.089Z,87.95
2017-01-07T01:06:17.619Z,88.53
2017-01-07T01:08:53.503Z,88.62
2017-01-07T01:10:18.558Z,89.2
2017-01-07T01:11:29.086Z,89.29
2017-01-07T01:12:39.620Z,88.29
2017-01-07T01:13:50.147Z,88.91
2017-01-07T01:15:00.677Z,89.25
2017-01-07T01:16:11.212Z,89.25
2017-01-07T01:17:21.769Z,88.87
2017-01-07T01:18:32.621Z,88.71
2017-01-07T01:19:43.150Z,88.62
2017-01-07T01:20:53.703Z,88.62
2017-01-07T01:22:04.239Z,89.06
2017-01-07T01:23:15.352Z,89.2
2017-01-07T01:24:26.179Z,88.91
2017-01-07T01:25:36.710Z,88.81
2017-01-07T01:26:47.243Z,88.91
2017-01-07T01:27:57.775Z,88.77
2017-01-07T01:29:08.314Z,88.96
2017-01-07T01:30:18.842Z,89.15
2017-01-07T01:31:29.375Z,89.15
2017-01-07T01:32:40.487Z,89.25
2017-01-07T01:33:51.043Z,88.91
2017-01-07T01:35:01.572Z,88.81
2017-01-07T01:36:12.401Z,88.57
2017-01-07T01:37:22.928Z,87.85
2017-01-07T01:38:33.461Z,87.95
2017-01-07T01:39:44.015Z,87.95
2017-01-07T01:40:54.543Z,87.95
2017-01-07T01:42:05.114Z,87.75
2017-01-07T01:43:15.644Z,88.23
2017-01-07T01:44:40.698Z,87.75
2017-01-07T01:45:51.228Z,87.75
2017-01-07T01:47:01.766Z,87.65
2017-01-07T01:48:12.320Z,86.98
2017-01-07T01:49:22.847Z,87.95
2017-01-07T01:50:33.378Z,87.75
2017-01-07T01:51:43.904Z,87.55
2017-01-07T01:53:09.160Z,87.95
2017-01-07T01:54:19.715Z,87.75
2017-01-07T01:55:30.244Z,87.95
2017-01-07T01:56:40.774Z,87.65
2017-01-07T01:57:51.468Z,87.75
2017-01-07T01:59:01.908Z,87.51
2017-01-07T02:00:12.345Z,87.85
2017-01-07T02:01:22.780Z,88.13
2017-01-07T02:02:33.216Z,87.85
2017-01-07T02:03:43.958Z,87.46
2017-01-07T02:04:54.392Z,88.62
2017-01-07T02:06:04.827Z,88.77
2017-01-07T02:07:15.263Z,89.06
2017-01-07T02:08:25.723Z,88.57
2017-01-07T02:09:36.156Z,89.01
2017-01-07T02:11:01.140Z,89.2
2017-01-07T02:12:11.577Z,89.39
2017-01-07T02:13:22.015Z,89.06
2017-01-07T02:14:32.452Z,89.25
2017-01-07T02:15:43.085Z,89.74
2017-01-07T02:16:53.525Z,89.64
2017-01-07T02:18:03.964Z,89.15
2017-01-07T02:19:14.405Z,89.15
2017-01-07T02:20:25.611Z,89.25
2017-01-07T02:21:36.051Z,89.06
2017-01-07T02:22:46.449Z,88.96
2017-01-07T02:23:56.766Z,88.67
2017-01-07T02:25:07.085Z,88.48
2017-01-07T02:26:17.409Z,88.19
2017-01-07T02:27:27.727Z,88.87
2017-01-07T02:28:38.042Z,89.31
2017-01-07T02:30:02.935Z,89.31
2017-01-07T02:31:13.255Z,89.5
2017-01-07T02:32:23.872Z,89.5
2017-01-07T02:33:34.190Z,89.5
2017-01-07T02:34:44.514Z,89.59
2017-01-07T02:35:54.829Z,90.08
2017-01-07T02:37:05.151Z,89.98
2017-01-07T02:38:15.482Z,89.98
2017-01-07T02:39:25.800Z,89.5
2017-01-07T02:40:36.122Z,89.69
2017-01-07T02:41:46.441Z,89.01
2017-01-07T02:42:57.100Z,89.89
2017-01-07T02:44:07.511Z,89.79
2017-01-07T02:45:17.916Z,89.93
2017-01-07T02:46:28.327Z,89.54
2017-01-07T02:47:38.735Z,89.45
2017-01-07T02:48:49.348Z,89.5
2017-01-07T02:49:59.756Z,89.74
2017-01-07T02:51:10.168Z,89.93
2017-01-07T02:52:20.582Z,89.89
2017-01-07T02:53:45.540Z,89.69
2017-01-07T02:54:56.207Z,89.4
2017-01-07T02:56:06.615Z,90.17
2017-01-07T02:57:17.026Z,90.17
2017-01-07T02:58:27.436Z,89.79
2017-01-07T02:59:38.146Z,89.89
2017-01-07T03:00:48.557Z,90.27
2017-01-07T03:01:58.972Z,89.98
2017-01-07T03:03:09.956Z,90.27
2017-01-07T03:04:20.365Z,89.98
2017-01-07T03:05:30.972Z,89.89
2017-01-07T03:06:41.381Z,89.89
2017-01-07T03:07:51.797Z,89.59
2017-01-07T03:09:02.208Z,90.08
2017-01-07T03:10:12.618Z,89.98
2017-01-07T03:11:23.330Z,90.08
2017-01-07T03:12:33.746Z,89.5
2017-01-07T03:13:44.162Z,89.89
2017-01-07T03:14:54.575Z,89.89
2017-01-07T03:16:04.987Z,89.69
2017-01-07T03:17:15.398Z,89.4
2017-01-07T03:18:25.807Z,89.69
2017-01-07T03:19:36.219Z,89.89
2017-01-07T03:20:46.629Z,89.59
2017-01-07T03:21:57.045Z,89.5
2017-01-07T03:23:07.759Z,89.4
2017-01-07T03:24:18.168Z,89.79
2017-01-07T03:25:28.580Z,89.4
2017-01-07T03:26:38.991Z,89.69
2017-01-07T03:27:49.366Z,90.37
2017-01-07T03:28:59.985Z,90.08
2017-01-07T03:30:10.303Z,89.98
2017-01-07T03:31:20.621Z,89.5
2017-01-07T03:32:30.976Z,90.27
2017-01-07T03:33:41.410Z,89.89
2017-01-07T03:34:52.148Z,90.08
2017-01-07T03:36:02.586Z,89.59
2017-01-07T03:37:13.023Z,89.4
2017-01-07T03:38:23.460Z,89.5
2017-01-07T03:39:33.893Z,89.79
2017-01-07T03:40:44.531Z,90.17
2017-01-07T03:41:54.967Z,89.79
2017-01-07T03:43:05.401Z,89.4
2017-01-07T03:44:15.841Z,89.31
2017-01-07T03:45:26.288Z,88.92
2017-01-07T03:46:51.273Z,89.21
2017-01-07T03:48:01.709Z,88.92
2017-01-07T03:49:12.165Z,89.01
2017-01-07T03:50:22.603Z,89.11
2017-01-07T03:51:33.039Z,88.24
2017-01-07T03:52:43.476Z,88.82
2017-01-07T03:53:53.914Z,88.82
2017-01-07T03:55:04.348Z,89.11
2017-01-07T03:56:14.789Z,89.11
2017-01-07T03:57:25.222Z,88.92
2017-01-07T03:58:35.658Z,88.73
2017-01-07T03:59:46.099Z,88.73
2017-01-07T04:00:56.539Z,88.53
2017-01-07T04:02:06.975Z,88.24
2017-01-07T04:03:17.612Z,88.43
2017-01-07T04:04:28.053Z,87.85
2017-01-07T04:05:38.494Z,87.47
2017-01-07T04:06:48.895Z,87.95
2017-01-07T04:07:59.216Z,87.76
2017-01-07T04:09:09.536Z,87.18
2017-01-07T04:10:19.856Z,86.99
2017-01-07T04:11:30.173Z,86.99
2017-01-07T04:12:40.493Z,87.08
2017-01-07T04:13:50.849Z,87.37
2017-01-07T04:15:01.260Z,87.85
2017-01-07T04:16:11.672Z,88.15
2017-01-07T04:17:22.083Z,87.57
2017-01-07T04:18:32.493Z,87.57
2017-01-07T04:19:42.901Z,87.85
2017-01-07T04:21:08.063Z,87.66
2017-01-07T04:22:18.475Z,87.57
2017-01-07T04:23:28.883Z,87.57
2017-01-07T04:24:39.299Z,87.47
2017-01-07T04:25:49.712Z,87.76
2017-01-07T04:27:00.122Z,87.08
2017-01-07T04:28:10.533Z,87.27
2017-01-07T04:29:20.942Z,87.08
2017-01-07T04:30:31.353Z,86.41
2017-01-07T04:31:42.064Z,86.79
2017-01-07T04:32:52.474Z,86.31
2017-01-07T04:34:02.886Z,86.69
2017-01-07T04:35:13.299Z,86.79
2017-01-07T04:36:23.708Z,86.31
2017-01-07T04:37:34.325Z,86.21
2017-01-07T04:38:44.736Z,86.51
2017-01-07T04:39:55.148Z,86.65
2017-01-07T04:41:05.565Z,87.27
2017-01-07T04:42:16.011Z,86.94
2017-01-07T04:43:26.839Z,87.43
2017-01-07T04:44:37.372Z,87.43
2017-01-07T04:45:47.901Z,88.49
2017-01-07T04:46:58.435Z,88.1
2017-01-07T04:48:08.992Z,88.39
2017-01-07T04:49:19.521Z,88.39
2017-01-07T04:50:30.055Z,88.29
2017-01-07T04:51:40.584Z,88.39
2017-01-07T04:52:51.112Z,88.49
2017-01-07T04:54:01.642Z,88.39
2017-01-07T04:55:12.748Z,87.81
2017-01-07T04:56:23.280Z,87.57
2017-01-07T04:57:33.808Z,88.43
2017-01-07T04:58:44.333Z,88.53
2017-01-07T04:59:54.864Z,88.49
2017-01-07T05:01:05.589Z,88.39
2017-01-07T05:02:16.120Z,88.63
2017-01-07T05:05:06.257Z,87.47
2017-01-07T05:06:16.791Z,88.15
2017-01-07T05:07:27.318Z,87.85
2017-01-07T05:08:37.848Z,87.76
2017-01-07T05:09:48.376Z,87.85
2017-01-07T05:10:58.904Z,87.57
2017-01-07T05:12:09.432Z,88.53
2017-01-07T05:13:19.991Z,89.01
2017-01-07T05:14:30.519Z,89.11
2017-01-07T05:17:06.050Z,89.59
2017-01-07T05:18:16.767Z,89.69
2017-01-07T05:19:27.178Z,89.89
2017-01-07T05:20:37.587Z,89.84
2017-01-07T05:21:47.997Z,89.94
2017-01-07T05:22:58.410Z,90.23
2017-01-07T05:24:08.818Z,90.13
2017-01-07T05:25:19.228Z,90.71
2017-01-07T05:26:29.639Z,90.33
2017-01-07T05:27:54.602Z,90.71
2017-01-07T05:29:05.316Z,90.71
2017-01-07T05:30:15.721Z,90.33
2017-01-07T05:31:26.133Z,90.03
2017-01-07T05:32:36.542Z,90.33
2017-01-07T05:33:47.253Z,90.13
2017-01-07T05:34:57.667Z,89.94
2017-01-07T05:36:08.077Z,89.75
2017-01-07T05:37:18.485Z,90.33
2017-01-07T05:38:28.887Z,89.94
2017-01-07T05:39:39.600Z,89.84
2017-01-07T05:40:50.010Z,89.55
2017-01-07T05:42:00.419Z,89.7
2017-01-07T05:43:10.820Z,89.84
2017-01-07T05:44:21.138Z,89.94
2017-01-07T05:45:31.759Z,89.36
2017-01-07T05:46:42.079Z,89.36
2017-01-07T05:47:52.396Z,89.55
2017-01-07T05:49:02.744Z,89.65
2017-01-07T05:50:13.059Z,89.84
2017-01-07T05:51:23.709Z,89.94
2017-01-07T05:52:34.145Z,89.65
2017-01-07T05:53:44.591Z,89.45
2017-01-07T05:54:55.028Z,89.75
2017-01-07T05:56:05.467Z,89.45
2017-01-07T05:57:16.198Z,89.94
2017-01-07T05:58:26.633Z,89.84
2017-01-07T05:59:37.082Z,89.55
2017-01-07T06:00:47.517Z,90.03
2017-01-07T06:01:57.953Z,89.75
2017-01-07T06:03:08.595Z,89.65
2017-01-07T06:04:19.034Z,89.36
2017-01-07T06:05:29.475Z,89.75
2017-01-07T06:06:39.910Z,89.75
2017-01-07T06:07:50.348Z,89.65
2017-01-07T06:09:01.009Z,89.26
2017-01-07T06:10:11.443Z,89.75
2017-01-07T06:11:21.880Z,89.26
2017-01-07T06:12:32.891Z,89.75
2017-01-07T06:13:43.324Z,89.75
2017-01-07T06:14:54.060Z,90.23
2017-01-07T06:16:04.503Z,89.75
2017-01-07T06:17:14.936Z,89.36
2017-01-07T06:18:25.372Z,89.75
2017-01-07T06:19:35.812Z,89.75
2017-01-07T06:20:46.848Z,89.17
2017-01-07T06:21:57.290Z,89.84
2017-01-07T06:23:22.273Z,89.65
2017-01-07T06:24:32.707Z,89.94
2017-01-07T06:25:43.145Z,89.94
2017-01-07T06:26:53.585Z,89.84
2017-01-07T06:28:04.059Z,89.55
2017-01-07T06:29:14.618Z,89.36
2017-01-07T06:30:25.144Z,89.75
2017-01-07T06:31:35.673Z,89.55
2017-01-07T06:32:46.202Z,89.75
2017-01-07T06:33:56.727Z,89.65
2017-01-07T06:35:07.257Z,89.55
2017-01-07T06:36:17.785Z,89.94
2017-01-07T06:37:28.311Z,89.84
2017-01-07T06:38:38.838Z,89.94
2017-01-07T06:39:49.366Z,90.03
2017-01-07T06:40:59.900Z,89.75
2017-01-07T06:42:10.428Z,90.13
2017-01-07T06:43:21.260Z,89.94
2017-01-07T06:44:31.786Z,90.23
2017-01-07T06:45:42.312Z,90.42
2017-01-07T06:46:52.843Z,90.91
2017-01-07T06:48:03.376Z,90.71
2017-01-07T06:49:14.105Z,90.71
2017-01-07T06:50:24.634Z,90.42
2017-01-07T06:51:35.162Z,90.52
2017-01-07T06:52:45.691Z,89.94
2017-01-07T06:53:56.218Z,90.03
2017-01-07T06:55:06.745Z,89.55
2017-01-07T06:56:17.276Z,89.36
2017-01-07T06:57:27.805Z,89.84
2017-01-07T06:58:38.335Z,90.13
2017-01-07T06:59:48.867Z,90.42
2017-01-07T07:00:59.695Z,90.52
2017-01-07T07:02:10.223Z,89.55
2017-01-07T07:03:20.751Z,89.94
2017-01-07T07:04:31.283Z,90.13
2017-01-07T07:05:42.393Z,90.61
2017-01-07T07:06:53.225Z,91.29
2017-01-07T07:08:03.757Z,91.15
2017-01-07T07:09:14.315Z,90.91
2017-01-07T07:10:24.847Z,90.91
2017-01-07T07:11:35.375Z,90.52
2017-01-07T07:12:46.103Z,90.91
2017-01-07T07:13:56.635Z,90.33
2017-01-07T07:15:07.163Z,90.61
2017-01-07T07:16:17.689Z,90.13
2017-01-07T07:17:28.214Z,90.13
2017-01-07T07:18:39.042Z,90.33
2017-01-07T07:19:49.572Z,90.61
2017-01-07T07:21:00.102Z,90.61
2017-01-07T07:22:10.633Z,90.71
2017-01-07T07:23:21.158Z,90.42
2017-01-07T07:24:31.885Z,90.03
2017-01-07T07:25:42.450Z,89.75
2017-01-07T07:26:52.976Z,90.13
2017-01-07T07:28:03.508Z,89.84
2017-01-07T07:29:14.040Z,90.57
2017-01-07T07:30:24.568Z,90.28
2017-01-07T07:31:35.124Z,90.23
2017-01-07T07:32:45.659Z,90.23
2017-01-07T07:33:56.190Z,90.03
2017-01-07T07:35:06.720Z,89.55
2017-01-07T07:36:17.217Z,89.45
2017-01-07T07:37:27.631Z,89.55
2017-01-07T07:38:38.038Z,89.55
2017-01-07T07:40:02.997Z,89.26
2017-01-07T07:42:38.566Z,89.84
2017-01-07T07:43:48.977Z,89.65
2017-01-07T07:44:59.385Z,89.26
2017-01-07T07:46:09.793Z,89.84
2017-01-07T07:47:20.418Z,89.36
2017-01-07T07:48:30.832Z,89.75
2017-01-07T07:49:41.240Z,89.84
2017-01-07T07:50:51.654Z,89.94
2017-01-07T07:52:02.063Z,89.75
2017-01-07T07:53:12.773Z,89.84
2017-01-07T07:54:23.184Z,89.55
2017-01-07T07:55:33.593Z,89.55
2017-01-07T07:56:44.006Z,89.84
2017-01-07T07:57:54.378Z,89.84
2017-01-07T07:59:04.998Z,89.45
2017-01-07T08:00:15.313Z,89.69
2017-01-07T08:01:25.635Z,89.5
2017-01-07T08:02:35.950Z,89.59
2017-01-07T08:03:46.270Z,89.69
2017-01-07T08:04:56.590Z,89.01
2017-01-07T08:06:06.908Z,89.69
2017-01-07T08:07:17.232Z,89.01
2017-01-07T08:08:27.550Z,89.21
2017-01-07T08:09:37.877Z,89.11
2017-01-07T08:10:48.196Z,89.11
2017-01-07T08:11:58.513Z,89.69
2017-01-07T08:13:08.835Z,89.01
2017-01-07T08:14:19.152Z,89.11
2017-01-07T08:15:29.475Z,89.31
2017-01-07T08:16:40.014Z,89.01
2017-01-07T08:17:50.333Z,89.11
2017-01-07T08:19:00.649Z,88.43
2017-01-07T08:20:10.966Z,88.82
2017-01-07T08:21:21.283Z,88.24
2017-01-07T08:22:31.905Z,88.43
2017-01-07T08:23:56.791Z,87.57
2017-01-07T08:25:07.107Z,87.95
2017-01-07T08:26:17.426Z,87.57
2017-01-07T08:27:27.742Z,87.76
2017-01-07T08:28:38.262Z,87.85
2017-01-07T08:29:48.605Z,87.66
2017-01-07T08:30:58.925Z,88.24
2017-01-07T08:32:09.241Z,87.95
2017-01-07T08:33:19.760Z,87.95
2017-01-07T08:34:30.076Z,88.15
2017-01-07T08:35:40.397Z,87.66
2017-01-07T08:36:50.717Z,87.66
2017-01-07T08:38:01.034Z,87.57
2017-01-07T08:39:11.365Z,87.37
2017-01-07T08:40:21.683Z,87.76
2017-01-07T08:41:32.001Z,87.85
2017-01-07T08:42:42.318Z,87.95
2017-01-07T08:43:52.710Z,88.53
2017-01-07T08:45:03.121Z,88.53
2017-01-07T08:46:13.535Z,88.53
2017-01-07T08:47:23.945Z,88.43
2017-01-07T08:48:34.353Z,88.43
2017-01-07T08:49:44.769Z,88.34
2017-01-07T08:50:55.376Z,88.53
2017-01-07T08:52:05.783Z,88.53
2017-01-07T08:53:16.190Z,88.53
2017-01-07T08:54:26.600Z,88.73
2017-01-07T08:55:37.010Z,88.92
2017-01-07T08:56:47.721Z,88.82
2017-01-07T08:57:58.137Z,89.31
2017-01-07T08:59:08.544Z,89.11
2017-01-07T09:00:18.956Z,89.01
2017-01-07T09:01:29.371Z,89.5
2017-01-07T09:02:39.785Z,89.21
2017-01-07T09:03:50.191Z,89.5
2017-01-07T09:05:00.602Z,89.5
2017-01-07T09:06:11.011Z,89.5
2017-01-07T09:07:21.419Z,89.59
2017-01-07T09:08:31.833Z,89.89
2017-01-07T09:09:42.816Z,89.69
2017-01-07T09:10:53.232Z,90.03
2017-01-07T09:12:03.643Z,90.13
2017-01-07T09:13:14.049Z,90.33
2017-01-07T09:14:24.659Z,90.33
2017-01-07T09:15:35.067Z,90.17
2017-01-07T09:16:45.477Z,90.13
2017-01-07T09:17:55.886Z,90.37
2017-01-07T09:19:06.297Z,90.03
2017-01-07T09:20:17.007Z,90.23
2017-01-07T09:21:27.417Z,89.65
2017-01-07T09:22:37.857Z,89.69
2017-01-07T09:23:48.268Z,90.17
2017-01-07T09:24:58.678Z,89.31
2017-01-07T09:26:09.092Z,89.98
2017-01-07T09:27:19.506Z,89.59
2017-01-07T09:28:29.880Z,89.89
2017-01-07T09:29:40.201Z,90.08
2017-01-07T09:30:50.523Z,90.08
2017-01-07T09:32:01.144Z,89.98
2017-01-07T09:33:11.465Z,89.5
2017-01-07T09:34:21.781Z,89.89
2017-01-07T09:35:32.103Z,89.59
2017-01-07T09:36:42.437Z,89.89
2017-01-07T09:37:53.053Z,89.59
2017-01-07T09:39:03.373Z,89.15
2017-01-07T09:40:13.693Z,89.83
2017-01-07T09:41:24.013Z,89.98
2017-01-07T09:42:34.330Z,89.54
2017-01-07T09:43:44.945Z,89.93
2017-01-07T09:44:55.267Z,90.03
2017-01-07T09:46:05.588Z,89.64
2017-01-07T09:47:15.905Z,90.22
2017-01-07T09:48:26.228Z,89.89
2017-01-07T09:49:36.748Z,90.32
2017-01-07T09:50:47.066Z,90.22
2017-01-07T09:51:57.386Z,89.93
2017-01-07T09:53:07.714Z,89.74
2017-01-07T09:54:18.034Z,90.03
2017-01-07T09:55:28.687Z,89.83
2017-01-07T09:56:39.122Z,89.93
2017-01-07T09:57:49.559Z,89.93
2017-01-07T09:58:59.993Z,89.83
2017-01-07T10:00:10.431Z,90.22
2017-01-07T10:01:20.864Z,90.32
2017-01-07T10:02:31.330Z,89.93
2017-01-07T10:03:41.766Z,90.03
2017-01-07T10:04:52.207Z,89.74
2017-01-07T10:07:27.943Z,88.87
2017-01-07T10:08:38.387Z,88.87
2017-01-07T10:09:48.824Z,88.04
2017-01-07T10:10:59.271Z,88.09
2017-01-07T10:12:09.714Z,88.13
2017-01-07T10:13:20.210Z,87.27
2017-01-07T10:14:30.740Z,87.85
2017-01-07T10:15:41.277Z,87.27
2017-01-07T10:16:51.804Z,87.46
2017-01-07T10:18:02.340Z,87.17
2017-01-07T10:19:12.872Z,86.98
2017-01-07T10:20:23.400Z,86.49
2017-01-07T10:21:33.927Z,86.69
2017-01-07T10:22:44.461Z,87.17
2017-01-07T10:23:55.218Z,86.98
2017-01-07T10:25:05.748Z,86.98
2017-01-07T10:26:16.277Z,86.88
2017-01-07T10:27:26.812Z,86.88
2017-01-07T10:28:37.338Z,86.88
2017-01-07T10:29:48.067Z,86.88
2017-01-07T10:30:58.595Z,86.69
2017-01-07T10:32:09.125Z,86.49
2017-01-07T10:33:19.683Z,85.76
2017-01-07T10:34:30.213Z,85.47
2017-01-07T10:35:41.049Z,85.37
2017-01-07T10:36:51.576Z,84.99
2017-01-07T10:38:02.106Z,84.64
2017-01-07T10:39:12.639Z,85.22
2017-01-07T10:40:23.173Z,85.28
2017-01-07T10:41:34.006Z,85.61
2017-01-07T10:42:44.564Z,85.13
2017-01-07T10:43:55.095Z,84.74
2017-01-07T10:45:05.623Z,86.05
2017-01-07T10:46:16.151Z,86.24
2017-01-07T10:47:26.679Z,86.54
2017-01-07T10:48:37.211Z,86
2017-01-07T10:49:47.741Z,85.41
2017-01-07T10:50:58.268Z,85.8
2017-01-07T10:52:08.812Z,85.9
2017-01-07T10:53:19.642Z,85.71
2017-01-07T10:54:44.712Z,85.61
2017-01-07T10:55:55.238Z,85.31
2017-01-07T10:57:05.775Z,84.83
2017-01-07T10:58:16.266Z,85.03
2017-01-07T10:59:26.705Z,84.35
2017-01-07T11:00:37.146Z,83.86
2017-01-07T11:01:47.586Z,83.23
2017-01-07T11:04:23.014Z,82.65
2017-01-07T11:05:33.451Z,82.59
2017-01-07T11:06:43.770Z,82.35
2017-01-07T11:07:54.090Z,82.01
2017-01-07T11:09:04.716Z,82.5
2017-01-07T11:10:15.044Z,81.91
2017-01-07T11:11:25.366Z,81.91
2017-01-07T11:12:35.686Z,80.94
2017-01-07T11:13:46.022Z,80.75
2017-01-07T11:14:56.543Z,80.85
2017-01-07T11:16:06.862Z,80.69
2017-01-07T11:17:17.183Z,80.79
2017-01-07T11:18:27.506Z,80.69
2017-01-07T11:19:37.826Z,80.3
2017-01-07T11:22:13.244Z,79.63
2017-01-07T11:23:23.562Z,79.14
2017-01-07T11:24:33.883Z,79.91
2017-01-07T11:25:44.226Z,79.82
2017-01-07T11:26:54.545Z,78.85
2017-01-07T11:28:04.872Z,79.82
2017-01-07T11:29:15.197Z,79.82
2017-01-07T11:30:25.519Z,79.24
2017-01-07T11:31:36.160Z,79.33
2017-01-07T11:32:46.481Z,80.15
2017-01-07T11:33:56.801Z,79.96
2017-01-07T11:35:07.128Z,78.66
2017-01-07T11:36:17.449Z,78.89
2017-01-07T11:37:27.767Z,78.4
2017-01-07T11:38:38.101Z,78.5
2017-01-07T11:39:48.453Z,78.11
2017-01-07T11:40:58.891Z,78.5
2017-01-07T11:42:09.331Z,78.69
2017-01-07T11:43:20.076Z,77.72
2017-01-07T11:44:30.522Z,77.34
2017-01-07T11:45:40.965Z,76.95
2017-01-07T11:46:51.402Z,76.89
2017-01-07T11:48:01.839Z,76.89
2017-01-07T11:49:12.478Z,77.18
2017-01-07T11:50:22.918Z,76.11
2017-01-07T11:52:58.352Z,76.4
2017-01-07T11:54:08.791Z,75.62
2017-01-07T11:55:19.533Z,76.31
2017-01-07T11:56:29.974Z,75.43
2017-01-07T11:57:40.418Z,75.67
2017-01-07T11:58:50.860Z,74.6
2017-01-07T12:00:01.508Z,75.47
2017-01-07T12:01:12.523Z,74.88
2017-01-07T12:02:22.967Z,75.43
2017-01-07T12:03:33.417Z,75.43
2017-01-07T12:04:43.862Z,75.08
2017-01-07T12:05:54.313Z,74.79
2017-01-07T12:07:04.750Z,74.5
2017-01-07T12:08:29.737Z,73.56
2017-01-07T12:09:40.179Z,73.66
2017-01-07T12:10:50.644Z,72.98
2017-01-07T12:12:01.085Z,72.78
2017-01-07T12:13:11.553Z,72.2
2017-01-07T12:14:21.990Z,72.11
2017-01-07T12:15:32.433Z,72.3
2017-01-07T12:16:42.879Z,72.63
2017-01-07T12:17:53.314Z,70.49
2017-01-07T12:19:03.755Z,71.94
2017-01-07T12:20:28.742Z,72.24
2017-01-07T12:21:39.184Z,71.75
2017-01-07T12:22:49.629Z,71.94
2017-01-07T12:24:14.615Z,71.56
2017-01-07T12:25:25.057Z,71.75
2017-01-07T12:26:35.497Z,71.91
2017-01-07T12:27:46.237Z,70.29
2017-01-07T12:28:56.680Z,71.56
2017-01-07T12:30:07.121Z,72.3
2017-01-07T12:31:17.600Z,72.3
2017-01-07T12:32:28.304Z,73.37
2017-01-07T12:33:38.743Z,73.95
2017-01-07T12:34:49.187Z,73.37
2017-01-07T12:35:59.642Z,72.78
2017-01-07T12:37:10.080Z,71.81
2017-01-07T12:38:20.524Z,71.56
2017-01-07T12:39:30.966Z,70.87
2017-01-07T12:40:41.407Z,70.2
2017-01-07T12:41:51.848Z,70.04
2017-01-07T12:43:02.293Z,69.94
2017-01-07T12:44:12.745Z,69.35
2017-01-07T12:45:23.185Z,68.67
2017-01-07T12:46:33.626Z,68.19
2017-01-07T12:47:44.069Z,68.38
2017-01-07T12:48:54.510Z,68.61
2017-01-07T12:50:04.916Z,68.32
2017-01-07T12:51:15.238Z,67.86
2017-01-07T12:52:25.559Z,66.6
2017-01-07T12:53:35.881Z,65.92
2017-01-07T12:54:46.208Z,65.95
2017-01-07T12:55:56.834Z,65.66
2017-01-07T12:57:07.188Z,66.34
2017-01-07T12:58:17.513Z,66.17
2017-01-07T12:59:27.838Z,65.88
2017-01-07T13:00:38.170Z,65.11
2017-01-07T13:01:48.695Z,65.2
2017-01-07T13:02:59.018Z,65.11
2017-01-07T13:04:09.354Z,64.81
2017-01-07T13:05:19.691Z,64.13
2017-01-07T13:06:30.016Z,63.64
2017-01-07T13:07:40.341Z,63.25
2017-01-07T13:08:50.664Z,63.18
2017-01-07T13:10:00.992Z,63.74
2017-01-07T13:11:12.440Z,63.74
2017-01-07T13:12:22.764Z,64.72
2017-01-07T13:13:33.350Z,64.32
2017-01-07T13:14:43.772Z,64.42
2017-01-07T13:15:54.192Z,63.93
2017-01-07T13:17:04.610Z,64.52
2017-01-07T13:18:15.025Z,64.2
2017-01-07T13:19:25.644Z,63.54
2017-01-07T13:20:36.069Z,63.54
2017-01-07T13:21:46.481Z,63.15
2017-01-07T13:22:56.895Z,63.18
2017-01-07T13:24:07.384Z,63.09
2017-01-07T13:25:18.149Z,62.02
2017-01-07T13:26:28.683Z,62.63
2017-01-07T13:27:53.747Z,63.02
2017-01-07T13:29:04.286Z,62.82
2017-01-07T13:30:29.348Z,61.66
2017-01-07T13:31:39.886Z,60.42
2017-01-07T13:32:50.425Z,59.83
2017-01-07T13:34:00.972Z,60.06
2017-01-07T13:35:11.507Z,59.96
2017-01-07T13:36:22.049Z,59.93
2017-01-07T13:37:32.585Z,60.52
2017-01-07T13:38:43.131Z,60.52
2017-01-07T13:41:18.737Z,60.71
2017-01-07T13:42:29.473Z,60.81
2017-01-07T13:43:40.012Z,60.42
2017-01-07T13:44:50.550Z,59.83
2017-01-07T13:46:01.089Z,60.03
2017-01-07T13:47:11.624Z,60.74
2017-01-07T13:48:36.688Z,59.77
2017-01-07T13:49:47.222Z,60.74
2017-01-07T13:50:57.762Z,60.03
2017-01-07T13:52:08.301Z,59.47
2017-01-07T13:53:19.044Z,58.59
2017-01-07T13:54:29.578Z,59.18
2017-01-07T13:55:40.109Z,59.96
2017-01-07T13:57:19.902Z,60.35
2017-01-07T13:58:30.401Z,58.13
2017-01-07T13:59:40.809Z,58.23
2017-01-07T14:00:51.133Z,58.13
2017-01-07T14:02:01.458Z,58.62
2017-01-07T14:03:11.788Z,58.62
2017-01-07T14:04:22.112Z,58.72
2017-01-07T14:05:32.437Z,59.08
2017-01-07T14:06:42.765Z,59.28
2017-01-07T14:08:07.690Z,59.28
2017-01-07T14:09:18.015Z,58.23
2017-01-07T14:10:28.338Z,57.62
2017-01-07T14:11:38.665Z,57.52
2017-01-07T14:12:49.003Z,57.71
2017-01-07T14:13:59.529Z,58.03
2017-01-07T14:15:09.856Z,56.57
2017-01-07T14:16:20.184Z,56.4
2017-01-07T14:17:30.511Z,55.52
2017-01-07T14:18:40.844Z,55.91
2017-01-07T14:19:51.370Z,56.67
2017-01-07T14:21:01.700Z,57.42
2017-01-07T14:22:12.030Z,55.79
2017-01-07T14:23:22.361Z,56.76
2017-01-07T14:24:32.689Z,56.57
2017-01-07T14:25:43.013Z,56.67
2017-01-07T14:26:53.338Z,55.98
2017-01-07T14:29:28.562Z,55.13
2017-01-07T14:30:38.886Z,55.16
2017-01-07T14:31:49.414Z,55.55
2017-01-07T14:32:59.743Z,56.52
2017-01-07T14:34:10.070Z,55.96
2017-01-07T14:35:20.398Z,55.9
2017-01-07T14:36:30.928Z,54.82
2017-01-07T14:37:41.259Z,54.16
2017-01-07T14:38:51.596Z,53.96
2017-01-07T14:40:01.926Z,54.06
2017-01-07T14:41:12.259Z,53.96
2017-01-07T14:42:22.912Z,53.86
2017-01-07T14:43:33.252Z,52.5
2017-01-07T14:44:43.592Z,54.62
2017-01-07T14:45:53.920Z,55.11
2017-01-07T14:47:04.247Z,54.99
2017-01-07T14:48:14.578Z,55.67
2017-01-07T14:49:24.907Z,55.96
2017-01-07T14:50:35.232Z,55.47
2017-01-07T14:51:45.562Z,55.96
2017-01-07T14:52:55.899Z,56.04
2017-01-07T14:54:06.231Z,55.55
2017-01-07T14:55:16.557Z,56.04
2017-01-07T14:56:26.882Z,55.94
2017-01-07T14:57:37.207Z,56.92
2017-01-07T14:58:47.531Z,56.7
2017-01-07T14:59:58.863Z,57.09
2017-01-07T15:01:09.187Z,56.79
2017-01-07T15:02:19.517Z,56.6
2017-01-07T15:03:29.841Z,56.4
2017-01-07T15:04:40.172Z,55.71
2017-01-07T15:05:50.798Z,55.71
2017-01-07T15:07:01.127Z,55.32
2017-01-07T15:08:11.477Z,56.13
2017-01-07T15:09:21.825Z,55.55
2017-01-07T15:10:32.151Z,53.72
2017-01-07T15:11:42.690Z,54.01
2017-01-07T15:13:07.591Z,54.69
2017-01-07T15:14:17.915Z,55.38
2017-01-07T15:15:28.243Z,54.79
2017-01-07T15:16:38.570Z,53.81
2017-01-07T15:17:49.198Z,54.03
2017-01-07T15:18:59.552Z,53.06
2017-01-07T15:20:09.877Z,53.06
2017-01-07T15:21:20.206Z,52.86
2017-01-07T15:22:30.537Z,54.23
2017-01-07T15:23:40.890Z,53.84
2017-01-07T15:24:51.216Z,52.86
2017-01-07T15:26:01.541Z,54.03
2017-01-07T15:28:37.183Z,53.06
2017-01-07T15:29:47.509Z,53.35
2017-01-07T15:30:57.837Z,54.01
2017-01-07T15:32:08.167Z,54.4